• Join FlightAware (Why Join?)
  • Login
  • US Flag 
01:22PM EDT


 

Airport Tracker/Info


-or-


 

Live Flight TrackerFlight Track Log ✈ SWA1718 ✈ 22-Apr-2013 ✈ KAMA - KDEN

Flight Track Log - Related Links

Times and Time Zones

All times are in EDT time to prevent confusion due to time zone crossing. See the SWA1718 flight status page for this flight to view local times or setup timezone preferences in your user account.

Time Position Orientation Groundspeed Altitude Reporting Facility
EDT Latitude Longitude Course Direction KTS MPH feet Rate Location/Type
05:32PM 35.3531 -101.7067 31° Northeast 269 310 10,300  Level Albuquerque Center
05:33PM 35.4350 -101.6583 26° Northeast 323 372 12,800 2,100 Climbing Albuquerque Center
05:34PM 35.5222 -101.6969 340° North 337 388 14,700 2,100 Climbing Albuquerque Center
05:35PM 35.6117 -101.7478 335° Northwest 352 405 17,200 2,760 Climbing Albuquerque Center
05:36PM 35.7640 -102.0333 334° Northwest  Level Estimated
05:36PM 35.7044 -101.7956 337° Northwest 360 414 20,400  Level Albuquerque Center
05:37PM 35.8553 -102.0887 334° Northwest  Level Estimated
05:37PM 35.7953 -101.8428 337° Northwest 357 411 22,400  Level Albuquerque Center
05:38PM 35.9100 -101.9036 337° Northwest 373 429 24,100 1,560 Climbing Albuquerque Center
05:39PM 36.0078 -101.9572 336° Northwest 384 442 25,700 1,380 Climbing Albuquerque Center
05:40PM 36.1075 -102.0083 338° Northwest 388 447 27,000 1,320 Climbing Albuquerque Center
05:41PM 36.2081 -102.0628 336° Northwest 392 451 28,500 1,560 Climbing Albuquerque Center
05:43PM 36.3067 -102.1164 336° Northwest 391 450 30,300 1,560 Climbing Albuquerque Center
05:44PM 36.4039 -102.1686 337° Northwest 384 442 31,800 1,320 Climbing Albuquerque Center
05:45PM 36.4992 -102.2200 337° Northwest 377 434 33,100 1,320 Climbing Albuquerque Center
05:46PM 36.6117 -102.2811 336° Northwest 369 425 34,600 1,200 Climbing Albuquerque Center
05:47PM 36.7053 -102.3317 337° Northwest 368 423 35,700 660 Climbing Albuquerque Center
05:48PM 36.7992 -102.3817 337° Northwest 366 421 36,000 120 Climbing Albuquerque Center
05:49PM 36.9044 -102.4417 336° Northwest 377 434 36,000  Level Albuquerque Center
05:50PM 36.9964 -102.4911 337° Northwest 377 434 36,000  Level Albuquerque Center
05:51PM 37.0936 -102.5447 336° Northwest 375 432 36,000  Level Albuquerque Center
05:52PM 37.2003 -102.6028 337° Northwest 375 432 36,000  Level Albuquerque Center
05:53PM 37.2889 -102.6522 336° Northwest 368 423 36,000  Level Albuquerque Center
05:54PM 37.3781 -102.7017 336° Northwest 366 421 36,000  Level Albuquerque Center
05:55PM 37.4808 -102.7586 336° Northwest 363 418 36,000  Level Albuquerque Center
05:56PM 37.5403 -102.7878 339° North 365 420 36,000  Level Denver Center
05:57PM 37.6525 -102.8225 346° North 372 428 36,000  Level Denver Center
05:58PM 37.7475 -102.8514 346° North 369 425 36,000  Level Denver Center
05:59PM 37.8586 -102.8872 346° North 370 426 36,000 -420 Level Denver Center
06:00PM 37.9536 -102.9172 346° North 370 426 35,200 -840 Descending Denver Center
06:01PM 38.0642 -102.9525 346° North 377 434 34,300 -600 Descending Denver Center
06:02PM 38.1633 -102.9844 346° North 382 440 34,000 -180 Descending Denver Center
06:03PM 38.2633 -103.0156 346° North 386 444 34,000  Level Denver Center
06:04PM 38.3819 -103.0525 346° North 390 449 34,000 -540 Level Denver Center
06:05PM 38.4825 -103.0853 346° North 390 449 33,000 -1,020 Descending Denver Center
06:06PM 38.5722 -103.1497 331° Northwest 352 405 32,000 -540 Descending Denver Center
06:07PM 38.6381 -103.2425 312° West 351 404 32,000  Level Denver Center
06:08PM 38.7053 -103.3372 312° West 357 411 32,000  Level Denver Center
06:09PM 38.7917 -103.4569 313° West 361 415 32,000  Level Denver Center
06:10PM 38.8644 -103.5600 312° West 358 412 32,000 -1,080 Level Denver Center
06:11PM 38.9300 -103.6533 312° West 348 400 29,900 -2,160 Descending Denver Center
06:12PM 38.9939 -103.7433 312° West 338 389 27,600 -2,340 Descending Denver Center
06:13PM 39.0589 -103.8347 313° West 343 395 25,200 -2,340 Descending Denver Center
06:14PM 39.1189 -103.9228 311° West 325 374 22,900 -2,220 Descending Denver Center
06:15PM 39.1778 -104.0067 312° West 315 362 20,700 -1,920 Descending Denver Center
06:16PM 39.2361 -104.0903 312° West 311 358 19,000 -1,620 Descending Denver Center
06:17PM 39.2781 -104.2044 295° West 297 342 17,500 -1,680 Descending Denver Center
06:18PM 39.3003 -104.3000 287° West 284 327 15,600 -1,620 Descending Denver Center
06:19PM 39.3514 -104.3783 310° West 289 333 14,300 -1,020 Descending Denver Center
06:20PM 39.3856 -104.4608 298° West 247 284 13,600 -1,140 Descending Denver Center
06:21PM 39.4161 -104.5492 294° West 268 308 12,000 -1,320 Descending Denver Center
06:22PM 39.4533 -104.6314 300° West 271 312 11,000 -540 Descending Denver Center
06:24PM 39.5156 -104.6603 340° North 239 275 11,000 -300 Level Denver Center
06:25PM 39.5878 -104.6639 358° North 230 265 10,500 -900 Descending Denver Center
06:26PM 39.6439 -104.6631 North 203 234 9,200 -1,140 Descending Denver Center
06:27PM 39.6986 -104.6622 North 191 220 8,200 -1,080 Descending Denver Center
06:28PM 39.7525 -104.6614 North 182 209 7,000 -1,020 Descending Denver Center
06:29PM 39.7919 -104.6611 360° North 136 157 6,200 -840 Descending Denver Center
06:30PM 39.8325 -104.6611 360° North 136 157 5,400 -840 Descending Denver Center
06:32PM 39.8500 -104.6667 North  Level FlightAware Approximate
06:39PM 39.8617 -104.6732 North  Level Estimated
06:40PM 39.8617 -104.6732 North  Level Estimated
06:41PM 39.8617 -104.6732 North  Level Estimated